Terminal Aerodrome Forecast
Issued by NWS

Home | Current Version | Previous Version | Text Only | Print | Product List | Glossary Off
Versions: 1 2 3 4 5 6 7 8 9 10 11 12 13 14 15 16 17 18 19 20 21 22 23 24

152
FTUS43 KMPX 200647 AAA
TAFRNH
TAF AMD
KRNH 200647Z 2007/2106 13004KT 2SM -DZ BR OVC007
     FM201000 12003KT 1SM -DZ BR OVC005
     FM201600 13005KT 3SM BR OVC003=

USA.gov is the U.S. government's official web portal to all federal, state and local government web resources and services.